createdAt,value
2022-10-17T00:01:56.896Z,101299.62
2022-10-17T00:04:59.871Z,101304.34
2022-10-17T00:08:02.305Z,101307.13
2022-10-17T00:11:08.836Z,101310.41
2022-10-17T00:14:11.354Z,101316.84
2022-10-17T00:17:15.491Z,101310.66
2022-10-17T00:20:18.375Z,101309.94
2022-10-17T00:23:21.211Z,101310.19
2022-10-17T00:26:25.108Z,101305.84
2022-10-17T00:29:28.549Z,101304.16
2022-10-17T00:32:31.829Z,101306.94
2022-10-17T00:35:34.645Z,101307.53
2022-10-17T00:38:37.599Z,101305.84
2022-10-17T00:41:40.373Z,101313.97
2022-10-17T00:45:03.039Z,101309.97
2022-10-17T00:48:08.575Z,101306.59
2022-10-17T00:51:11.216Z,101307.56
2022-10-17T00:54:17.746Z,101306.12
2022-10-17T00:57:20.703Z,101308.78
2022-10-17T01:00:24.098Z,101306.12
2022-10-17T01:03:26.576Z,101299.00
2022-10-17T01:06:29.460Z,101306.62
2022-10-17T01:09:31.995Z,101299.75
2022-10-17T01:13:11.846Z,101303.38
2022-10-17T01:16:22.577Z,101297.34
2022-10-17T01:19:50.687Z,101302.25
2022-10-17T01:23:08.342Z,101305.88
2022-10-17T01:26:13.705Z,101303.47
2022-10-17T01:29:28.310Z,101300.81
2022-10-17T01:32:46.838Z,101301.91
2022-10-17T01:36:04.893Z,101306.62
2022-10-17T01:39:13.562Z,101308.69
2022-10-17T01:42:21.863Z,101304.34
2022-10-17T01:45:33.898Z,101302.66
2022-10-17T01:48:38.198Z,101300.31
2022-10-17T01:51:45.214Z,101303.81
2022-10-17T01:54:52.144Z,101307.56
2022-10-17T01:57:59.420Z,101313.84
2022-10-17T02:01:05.594Z,101315.91
2022-10-17T02:04:09.875Z,101316.00
2022-10-17T02:07:13.501Z,101309.75
2022-10-17T02:10:26.018Z,101303.59
2022-10-17T02:13:45.114Z,101312.50
2022-10-17T02:17:14.521Z,101310.09
2022-10-17T02:20:37.374Z,101305.00
2022-10-17T02:23:56.678Z,101306.94
2022-10-17T02:27:08.636Z,101311.63
2022-10-17T02:30:26.420Z,101320.94
2022-10-17T02:33:44.360Z,101319.97
2022-10-17T02:36:51.950Z,101329.00
2022-10-17T02:39:56.816Z,101322.84
2022-10-17T02:43:00.963Z,101322.00
2022-10-17T02:46:05.096Z,101332.03
2022-10-17T02:49:18.843Z,101332.13
2022-10-17T02:52:58.564Z,101335.63
2022-10-17T02:56:05.004Z,101338.53
2022-10-17T02:59:09.598Z,101333.84
2022-10-17T03:02:12.055Z,101330.56
2022-10-17T03:05:21.322Z,101332.63
2022-10-17T03:08:24.486Z,101341.66
2022-10-17T03:11:27.657Z,101339.97
2022-10-17T03:14:30.254Z,101338.28
2022-10-17T03:17:33.324Z,101345.28
2022-10-17T03:20:36.045Z,101342.09
2022-10-17T03:23:38.860Z,101349.22
2022-10-17T03:26:41.519Z,101355.50
2022-10-17T03:29:44.340Z,101355.72
2022-10-17T03:32:48.761Z,101360.91
2022-10-17T03:35:51.795Z,101362.72
2022-10-17T03:38:54.966Z,101366.47
2022-10-17T03:41:58.026Z,101370.91
2022-10-17T03:45:01.021Z,101372.72
2022-10-17T03:48:04.125Z,101374.88
2022-10-17T03:51:08.750Z,101376.69
2022-10-17T03:54:13.361Z,101383.81
2022-10-17T03:57:15.918Z,101375.97
2022-10-17T04:00:19.707Z,101374.28
2022-10-17T04:03:25.406Z,101383.19
2022-10-17T04:06:27.962Z,101379.81
2022-10-17T04:09:30.868Z,101393.19
2022-10-17T04:12:33.777Z,101392.56
2022-10-17T04:15:36.632Z,101407.53
2022-10-17T04:18:40.245Z,101408.50
2022-10-17T04:21:43.054Z,101405.09
2022-10-17T04:24:45.598Z,101414.03
2022-10-17T04:27:49.349Z,101416.69
2022-10-17T04:31:08.065Z,101406.19
2022-10-17T04:34:14.120Z,101408.94
2022-10-17T04:37:17.037Z,101407.47
2022-10-17T04:40:20.979Z,101411.19
2022-10-17T04:43:24.050Z,101412.38
2022-10-17T04:46:27.474Z,101413.56
2022-10-17T04:49:32.820Z,101409.09
2022-10-17T04:52:39.216Z,101418.00
2022-10-17T04:55:47.391Z,101410.50
2022-10-17T04:58:52.127Z,101421.00
2022-10-17T05:01:55.168Z,101421.84
2022-10-17T05:04:58.505Z,101429.91
2022-10-17T05:08:01.049Z,101430.88
2022-10-17T05:11:05.925Z,101432.56
2022-10-17T05:14:08.488Z,101437.97
2022-10-17T05:17:11.350Z,101444.25
2022-10-17T05:20:14.337Z,101450.50
2022-10-17T05:23:17.295Z,101441.94
2022-10-17T05:26:20.559Z,101452.53
2022-10-17T05:29:26.441Z,101461.22
2022-10-17T05:32:36.788Z,101463.25
2022-10-17T05:35:39.681Z,101465.91
2022-10-17T05:38:42.271Z,101469.19
2022-10-17T05:41:46.719Z,101468.97
2022-10-17T05:44:49.416Z,101474.16
2022-10-17T05:47:52.723Z,101479.25
2022-10-17T05:51:04.941Z,101483.38
2022-10-17T05:54:08.452Z,101486.75
2022-10-17T05:57:11.421Z,101496.19
2022-10-17T06:00:14.881Z,101499.56
2022-10-17T06:03:17.294Z,101503.63
2022-10-17T06:06:20.420Z,101505.19
2022-10-17T06:09:23.992Z,101511.75
2022-10-17T06:12:27.743Z,101521.81
2022-10-17T06:15:30.606Z,101518.47
2022-10-17T06:18:34.056Z,101526.66
2022-10-17T06:21:38.673Z,101521.00
2022-10-17T06:24:42.539Z,101534.03
2022-10-17T06:27:45.233Z,101541.31
2022-10-17T06:30:48.364Z,101536.06
2022-10-17T06:33:50.958Z,101544.31
2022-10-17T06:36:54.027Z,101549.19
2022-10-17T06:39:56.641Z,101552.03
2022-10-17T06:43:00.961Z,101550.59
2022-10-17T06:46:07.618Z,101555.78
2022-10-17T06:49:11.644Z,101563.22
2022-10-17T06:52:15.039Z,101561.31
2022-10-17T06:55:21.480Z,101561.44
2022-10-17T06:58:25.785Z,101569.97
2022-10-17T07:01:31.095Z,101563.09
2022-10-17T07:04:34.182Z,101577.00
2022-10-17T07:07:40.127Z,101573.03
2022-10-17T07:10:46.562Z,101572.94
2022-10-17T07:13:49.554Z,101576.88
2022-10-17T07:16:52.153Z,101577.50
2022-10-17T07:19:55.205Z,101583.16
2022-10-17T07:22:58.079Z,101583.72
2022-10-17T07:26:08.983Z,101584.41
2022-10-17T07:29:13.047Z,101575.84
2022-10-17T07:32:16.183Z,101577.25
2022-10-17T07:35:18.666Z,101582.37
2022-10-17T07:38:21.605Z,101584.00
2022-10-17T07:41:24.143Z,101589.47
2022-10-17T07:44:27.256Z,101589.41
2022-10-17T07:47:31.536Z,101596.13
2022-10-17T07:50:35.172Z,101596.75
2022-10-17T07:53:38.957Z,101599.31
2022-10-17T07:56:41.943Z,101601.62
2022-10-17T07:59:44.481Z,101596.88
2022-10-17T08:02:47.364Z,101599.47
2022-10-17T08:05:50.210Z,101591.31
2022-10-17T08:08:53.065Z,101594.56
2022-10-17T08:11:56.502Z,101601.22
2022-10-17T08:14:59.519Z,101598.84
2022-10-17T08:18:02.463Z,101603.66
2022-10-17T08:21:08.842Z,101610.38
2022-10-17T08:24:11.652Z,101609.09
2022-10-17T08:27:14.469Z,101610.19
2022-10-17T08:30:18.051Z,101611.12
2022-10-17T08:33:20.594Z,101614.03
2022-10-17T08:36:23.475Z,101606.09
2022-10-17T08:39:26.562Z,101606.31
2022-10-17T08:43:07.179Z,101614.38
2022-10-17T08:46:09.904Z,101611.91
2022-10-17T08:49:47.780Z,101609.22
2022-10-17T08:52:57.926Z,101605.88
2022-10-17T08:56:07.220Z,101609.53
2022-10-17T08:59:18.899Z,101603.88
2022-10-17T09:02:40.222Z,101605.84
2022-10-17T09:06:18.979Z,101602.97
2022-10-17T09:09:24.929Z,101611.00
2022-10-17T09:12:39.285Z,101607.38
2022-10-17T09:15:52.269Z,101609.19
2022-10-17T09:19:28.863Z,101610.25
2022-10-17T09:22:39.096Z,101604.41
2022-10-17T09:25:46.975Z,101607.63
2022-10-17T09:28:55.078Z,101605.12
2022-10-17T09:32:05.634Z,101599.59
2022-10-17T09:35:13.958Z,101598.44
2022-10-17T09:38:21.442Z,101600.66
2022-10-17T09:41:48.820Z,101598.63
2022-10-17T09:44:57.696Z,101600.13
2022-10-17T09:48:27.860Z,101597.09
2022-10-17T09:51:31.321Z,101592.84
2022-10-17T09:54:41.947Z,101586.94
2022-10-17T09:57:59.003Z,101592.78
2022-10-17T10:01:25.053Z,101593.78
2022-10-17T10:04:30.352Z,101587.31
2022-10-17T10:07:38.583Z,101594.41
2022-10-17T10:10:44.813Z,101592.50
2022-10-17T10:13:48.529Z,101597.84
2022-10-17T10:16:53.791Z,101590.75
2022-10-17T10:19:56.594Z,101590.47
2022-10-17T10:23:21.355Z,101591.97
2022-10-17T10:26:26.693Z,101594.53
2022-10-17T10:29:41.740Z,101590.28
2022-10-17T10:32:46.363Z,101582.75
2022-10-17T10:35:55.839Z,101591.12
2022-10-17T10:39:01.299Z,101587.00
2022-10-17T10:42:18.162Z,101576.00
2022-10-17T10:45:46.491Z,101578.53
2022-10-17T10:48:59.750Z,101575.00
2022-10-17T10:52:03.350Z,101575.66
2022-10-17T10:55:16.046Z,101576.13
2022-10-17T10:58:41.767Z,101571.38
2022-10-17T11:02:02.254Z,101564.41
2022-10-17T11:05:11.167Z,101573.00
2022-10-17T11:08:35.043Z,101577.62
2022-10-17T11:11:59.439Z,101577.50
2022-10-17T11:15:14.357Z,101571.38
2022-10-17T11:18:28.460Z,101564.03
2022-10-17T11:21:44.083Z,101563.69
2022-10-17T11:24:59.642Z,101561.66
2022-10-17T11:28:14.496Z,101551.69
2022-10-17T11:31:17.944Z,101547.78
2022-10-17T11:34:29.621Z,101546.25
2022-10-17T11:37:36.674Z,101545.34
2022-10-17T11:40:45.225Z,101545.19
2022-10-17T11:43:55.147Z,101544.84
2022-10-17T11:47:01.952Z,101535.25
2022-10-17T11:53:58.930Z,101524.13
2022-10-17T11:57:13.969Z,101538.50
2022-10-17T12:00:39.207Z,101525.81
2022-10-17T12:04:05.913Z,101520.06
2022-10-17T12:07:28.980Z,101530.16
2022-10-17T12:10:51.852Z,101524.81
2022-10-17T12:13:56.445Z,101524.53
2022-10-17T12:17:00.018Z,101524.75
2022-10-17T12:20:21.552Z,101509.75
2022-10-17T12:23:29.326Z,101514.87
2022-10-17T12:26:31.858Z,101511.59
2022-10-17T12:29:34.883Z,101498.84
2022-10-17T12:32:53.408Z,101512.25
2022-10-17T12:36:18.769Z,101503.50
2022-10-17T12:39:27.808Z,101507.34
2022-10-17T12:42:32.812Z,101495.50
2022-10-17T12:45:52.905Z,101497.56
2022-10-17T12:49:01.192Z,101498.19
2022-10-17T12:52:15.886Z,101495.56
2022-10-17T12:55:19.408Z,101496.41
2022-10-17T12:58:21.982Z,101492.69
2022-10-17T13:01:31.406Z,101495.47
2022-10-17T13:04:36.481Z,101488.47
2022-10-17T13:07:41.546Z,101487.84
2022-10-17T13:10:49.095Z,101490.25
2022-10-17T13:13:57.722Z,101485.78
2022-10-17T13:17:07.177Z,101483.59
2022-10-17T13:20:25.554Z,101480.34
2022-10-17T13:23:36.917Z,101483.53
2022-10-17T13:26:45.469Z,101481.00
2022-10-17T13:29:48.154Z,101479.53
2022-10-17T13:32:51.382Z,101483.53
2022-10-17T13:36:00.322Z,101475.88
2022-10-17T13:39:12.489Z,101474.78
2022-10-17T13:42:39.750Z,101477.94
2022-10-17T13:45:48.960Z,101471.81
2022-10-17T13:48:51.677Z,101475.06
2022-10-17T13:51:55.102Z,101471.63
2022-10-17T13:55:16.569Z,101470.66
2022-10-17T13:58:20.334Z,101469.38
2022-10-17T14:01:24.666Z,101470.31
2022-10-17T14:04:28.349Z,101469.38
2022-10-17T14:08:09.540Z,101459.69
2022-10-17T14:11:25.427Z,101470.13
2022-10-17T14:14:28.410Z,101464.63
2022-10-17T14:17:31.657Z,101463.22
2022-10-17T14:24:15.803Z,101463.78
2022-10-17T14:27:52.156Z,101460.72
2022-10-17T14:31:22.931Z,101457.56
2022-10-17T14:34:33.760Z,101453.28
2022-10-17T14:37:43.832Z,101455.19
2022-10-17T14:40:51.478Z,101455.13
2022-10-17T14:43:59.867Z,101459.59
2022-10-17T14:47:30.919Z,101453.44
2022-10-17T14:50:32.619Z,101455.72
2022-10-17T14:53:35.867Z,101453.81
2022-10-17T14:56:42.727Z,101448.03
2022-10-17T14:59:54.620Z,101451.94
2022-10-17T15:02:58.146Z,101453.03
2022-10-17T15:06:19.493Z,101447.34
2022-10-17T15:09:23.693Z,101444.13
2022-10-17T15:12:26.734Z,101447.75
2022-10-17T15:15:30.530Z,101449.34
2022-10-17T15:18:34.095Z,101458.53
2022-10-17T15:21:40.765Z,101455.22
2022-10-17T15:24:46.573Z,101454.28
2022-10-17T15:27:49.508Z,101459.63
2022-10-17T15:30:52.275Z,101457.13
2022-10-17T15:33:55.307Z,101460.91
2022-10-17T15:36:58.775Z,101471.94
2022-10-17T15:40:05.359Z,101472.12
2022-10-17T15:43:09.497Z,101472.50
2022-10-17T15:46:14.786Z,101468.41
2022-10-17T15:49:19.824Z,101473.66
2022-10-17T15:52:24.071Z,101481.13
2022-10-17T15:55:26.953Z,101485.00
2022-10-17T15:58:36.499Z,101484.31
2022-10-17T16:01:39.468Z,101486.19
2022-10-17T16:04:42.938Z,101486.53
2022-10-17T16:07:46.761Z,101493.25
2022-10-17T16:10:50.089Z,101491.25
2022-10-17T16:13:54.330Z,101496.94
2022-10-17T16:16:57.171Z,101497.75
2022-10-17T16:20:04.003Z,101499.19
2022-10-17T16:23:08.427Z,101510.25
2022-10-17T16:26:14.063Z,101510.41
2022-10-17T16:29:17.232Z,101505.16
2022-10-17T16:32:19.791Z,101502.06
2022-10-17T16:35:33.154Z,101506.88
2022-10-17T16:38:39.975Z,101505.47
2022-10-17T16:41:42.798Z,101509.25
2022-10-17T16:44:45.323Z,101511.37
2022-10-17T16:47:49.240Z,101512.44
2022-10-17T16:50:51.788Z,101516.75
2022-10-17T16:53:56.430Z,101520.53
2022-10-17T16:56:59.167Z,101520.00
2022-10-17T17:00:02.229Z,101521.78
2022-10-17T17:03:04.997Z,101523.69
2022-10-17T17:06:09.298Z,101526.16
2022-10-17T17:09:11.975Z,101530.59
2022-10-17T17:12:14.844Z,101529.38
2022-10-17T17:15:17.417Z,101527.59
2022-10-17T17:18:21.033Z,101528.34
2022-10-17T17:21:23.851Z,101533.78
2022-10-17T17:24:26.751Z,101539.75
2022-10-17T17:27:29.671Z,101529.34
2022-10-17T17:30:34.686Z,101539.81
2022-10-17T17:33:39.110Z,101536.69
2022-10-17T17:36:42.178Z,101537.28
2022-10-17T17:39:44.800Z,101539.03
2022-10-17T17:42:47.696Z,101532.88
2022-10-17T17:45:50.584Z,101526.41
2022-10-17T17:48:55.008Z,101532.34
2022-10-17T17:51:57.639Z,101531.94
2022-10-17T17:55:00.529Z,101522.13
2022-10-17T17:58:03.806Z,101530.75
2022-10-17T18:01:12.319Z,101526.94
2022-10-17T18:04:17.239Z,101530.06
2022-10-17T18:07:19.684Z,101526.44
2022-10-17T18:10:23.025Z,101527.00
2022-10-17T18:13:25.651Z,101525.19
2022-10-17T18:16:30.213Z,101524.91
2022-10-17T18:19:32.785Z,101528.31
2022-10-17T18:22:35.835Z,101524.47
2022-10-17T18:25:39.688Z,101518.03
2022-10-17T18:28:43.488Z,101527.47
2022-10-17T18:31:46.076Z,101532.25
2022-10-17T18:34:51.140Z,101529.97
2022-10-17T18:37:56.724Z,101533.06
2022-10-17T18:41:14.201Z,101522.78
2022-10-17T18:44:16.909Z,101517.16
2022-10-17T18:47:19.682Z,101524.06
2022-10-17T18:50:24.367Z,101524.22
2022-10-17T18:53:28.272Z,101526.72
2022-10-17T18:56:31.851Z,101536.69
2022-10-17T18:59:34.936Z,101530.50
2022-10-17T19:02:38.074Z,101533.59
2022-10-17T19:05:41.884Z,101526.53
2022-10-17T19:08:45.468Z,101521.75
2022-10-17T19:11:48.293Z,101522.19
2022-10-17T19:14:51.008Z,101528.78
2022-10-17T19:17:53.832Z,101530.97
2022-10-17T19:21:01.767Z,101531.53
2022-10-17T19:24:07.191Z,101527.03
2022-10-17T19:27:10.605Z,101521.41
2022-10-17T19:30:13.359Z,101525.47
2022-10-17T19:33:15.926Z,101528.09
2022-10-17T19:36:20.601Z,101528.47
2022-10-17T19:39:23.943Z,101532.22
2022-10-17T19:42:26.700Z,101518.31
2022-10-17T19:45:29.227Z,101521.25
2022-10-17T19:48:34.310Z,101518.00
2022-10-17T19:51:37.216Z,101514.75
2022-10-17T19:54:40.754Z,101523.03
2022-10-17T19:57:43.297Z,101511.19
2022-10-17T20:00:51.341Z,101514.97
2022-10-17T20:03:54.857Z,101520.59
2022-10-17T20:06:59.942Z,101529.69
2022-10-17T20:10:03.063Z,101525.31
2022-10-17T20:13:05.842Z,101520.50
2022-10-17T20:16:13.572Z,101521.75
2022-10-17T20:19:16.378Z,101517.66
2022-10-17T20:22:19.212Z,101531.25
2022-10-17T20:25:22.025Z,101523.53
2022-10-17T20:28:24.899Z,101524.50
2022-10-17T20:31:27.642Z,101524.06
2022-10-17T20:34:34.793Z,101527.81
2022-10-17T20:37:41.699Z,101525.66
2022-10-17T20:40:46.171Z,101525.91
2022-10-17T20:43:51.379Z,101522.78
2022-10-17T20:47:01.738Z,101521.22
2022-10-17T20:50:05.093Z,101521.50
2022-10-17T20:53:34.860Z,101521.75
2022-10-17T20:56:33.098Z,101522.97
2022-10-17T20:59:36.150Z,101524.94
2022-10-17T21:02:38.680Z,101524.22
2022-10-17T21:05:41.532Z,101527.00
2022-10-17T21:08:44.909Z,101524.87
2022-10-17T21:11:51.220Z,101520.00
2022-10-17T21:14:53.976Z,101517.47
2022-10-17T21:17:56.752Z,101515.19
2022-10-17T21:21:33.812Z,101519.22
2022-10-17T21:24:36.589Z,101519.72
2022-10-17T21:27:39.064Z,101519.84
2022-10-17T21:30:41.893Z,101520.97
2022-10-17T21:33:46.678Z,101516.00
2022-10-17T21:36:49.453Z,101517.94
2022-10-17T21:39:52.046Z,101519.88
2022-10-17T21:42:54.918Z,101515.00
2022-10-17T21:46:01.735Z,101523.25
2022-10-17T21:49:04.845Z,101515.41
2022-10-17T21:52:07.349Z,101512.25
2022-10-17T21:55:12.842Z,101513.34
2022-10-17T21:58:15.372Z,101516.16
2022-10-17T22:01:23.114Z,101525.34
2022-10-17T22:04:26.088Z,101516.78
2022-10-17T22:07:28.608Z,101512.53
2022-10-17T22:10:37.116Z,101510.97
2022-10-17T22:13:39.909Z,101511.81
2022-10-17T22:16:45.010Z,101504.44
2022-10-17T22:19:47.572Z,101503.81
2022-10-17T22:22:54.520Z,101502.38
2022-10-17T22:25:58.344Z,101502.75
2022-10-17T22:29:01.299Z,101502.88
2022-10-17T22:32:03.849Z,101502.66
2022-10-17T22:35:07.212Z,101497.69
2022-10-17T22:38:09.766Z,101503.88
2022-10-17T22:41:12.502Z,101503.59
2022-10-17T22:44:14.991Z,101502.16
2022-10-17T22:47:17.715Z,101505.66
2022-10-17T22:50:21.421Z,101509.28
2022-10-17T22:53:26.365Z,101499.13
2022-10-17T22:56:28.808Z,101500.22
2022-10-17T22:59:31.579Z,101512.19
2022-10-17T23:02:34.540Z,101508.81
2022-10-17T23:05:37.346Z,101505.53
2022-10-17T23:08:40.074Z,101507.22
2022-10-17T23:11:42.878Z,101499.62
2022-10-17T23:14:45.482Z,101492.31
2022-10-17T23:17:48.297Z,101492.09
2022-10-17T23:20:51.277Z,101494.87
2022-10-17T23:23:54.158Z,101487.84
2022-10-17T23:26:57.049Z,101485.44
2022-10-17T23:29:59.924Z,101484.09
2022-10-17T23:33:02.846Z,101478.19
2022-10-17T23:36:06.065Z,101478.41
2022-10-17T23:39:09.366Z,101480.13
2022-10-17T23:42:12.201Z,101474.06
2022-10-17T23:45:14.810Z,101473.22
2022-10-17T23:48:17.600Z,101474.44
2022-10-17T23:51:20.635Z,101479.88
2022-10-17T23:54:23.443Z,101470.44
2022-10-17T23:57:25.972Z,101467.00
